Main page
METAR-TAF:

METAR-TAF

Airports :

Coffs Harbour Airport

Coffs Harbour, Australia

latitude: 30-19-12S, longitude: 153-07-00E, elevation: 5 m

Current weather observation

The report was made 16 minutes ago, at 13:30 UTC
Wind 8 kt from the West/Southwest
Temperature 14°C
Humidity 58%
Pressure 1014 hPa
Visibility 10 km or more

METAR: YCFS 171330Z AUTO 25008KT 9999 // NCD 14/06 Q1014 RF00.0/000.0

Time: 23:46 (13:46 UTC)

Forecast

The report was made 2 hours and 44 minutes ago, at 11:02 UTC
Forecast valid from 17 at 12 UTC to 18 at 12 UTC
Wind 8 kt from the West
Visibility 10 km or more
no clouds below 1500 m and no cumulonimbus
From 18 at 0000 UTC
Wind 13 kt from the Southwest
Visibility 10 km or more
no clouds below 1500 m and no cumulonimbus
From 18 at 0700 UTC
Wind 8 kt from the West
Visibility 10 km or more
no clouds below 1500 m and no cumulonimbus

TAF: YCFS 171102Z 1712/1812 26008KT CAVOK FM180000 22013KT CAVOK FM180700 26008KT CAVOK

Weather observations and forecasts of more than 4000 airports (METAR and TAF reports).

The available stations are represented by yellow and red dots on the map.

Hover mouse over dot to see the name of the station.

Then click to see weather observations and forecasts.

To change the map : click on the green buttons with a black cross to zoom in, on the green button with a dash to zoom out, or on the green arrows for adjacent maps.


METAR-TAF: